sensor_id;sensor_type;location;lat;lon;timestamp;pressure;altitude;pressure_sealevel;temperature;humidity
55687;BME280;41911;52.362;4.978;2022-11-03T00:01:28;101260.05;;;9.48;49.42
55687;BME280;41911;52.362;4.978;2022-11-03T00:01:59;101258.23;;;10.00;48.92
55687;BME280;41911;52.362;4.978;2022-11-03T00:02:30;101257.69;;;10.00;48.90
55687;BME280;41911;52.362;4.978;2022-11-03T00:03:01;101257.64;;;9.94;49.05
55687;BME280;41911;52.362;4.978;2022-11-03T00:03:32;101259.97;;;10.28;49.02
55687;BME280;41911;52.362;4.978;2022-11-03T00:04:04;101258.09;;;10.14;49.29
55687;BME280;41911;52.362;4.978;2022-11-03T00:05:05;101262.55;;;10.30;48.98
55687;BME280;41911;52.362;4.978;2022-11-03T00:05:37;101255.10;;;10.32;49.00
55687;BME280;41911;52.362;4.978;2022-11-03T00:06:08;101256.01;;;10.16;49.28
55687;BME280;41911;52.362;4.978;2022-11-03T00:06:40;101259.86;;;9.94;49.69
55687;BME280;41911;52.362;4.978;2022-11-03T00:07:11;101255.71;;;10.09;49.38
55687;BME280;41911;52.362;4.978;2022-11-03T00:07:42;101253.21;;;10.25;49.24
55687;BME280;41911;52.362;4.978;2022-11-03T00:08:13;101252.68;;;10.30;49.05
55687;BME280;41911;52.362;4.978;2022-11-03T00:08:44;101248.65;;;10.59;48.66
55687;BME280;41911;52.362;4.978;2022-11-03T00:09:16;101247.45;;;10.23;48.76
55687;BME280;41911;52.362;4.978;2022-11-03T00:09:48;101244.12;;;9.81;48.84
55687;BME280;41911;52.362;4.978;2022-11-03T00:10:19;101241.49;;;10.74;48.30
55687;BME280;41911;52.362;4.978;2022-11-03T00:10:50;101240.23;;;10.73;48.29
55687;BME280;41911;52.362;4.978;2022-11-03T00:11:20;101240.02;;;10.26;48.33
55687;BME280;41911;52.362;4.978;2022-11-03T00:11:51;101245.52;;;9.96;48.46
55687;BME280;41911;52.362;4.978;2022-11-03T00:12:22;101244.46;;;10.00;48.68
55687;BME280;41911;52.362;4.978;2022-11-03T00:12:53;101246.37;;;10.27;48.79
55687;BME280;41911;52.362;4.978;2022-11-03T00:13:24;101241.10;;;10.51;48.46
55687;BME280;41911;52.362;4.978;2022-11-03T00:14:01;101245.57;;;10.35;48.76
55687;BME280;41911;52.362;4.978;2022-11-03T00:14:37;101243.15;;;10.36;48.78
55687;BME280;41911;52.362;4.978;2022-11-03T00:15:08;101245.24;;;10.07;48.61
55687;BME280;41911;52.362;4.978;2022-11-03T00:15:47;101244.75;;;9.95;48.98
55687;BME280;41911;52.362;4.978;2022-11-03T00:16:19;101240.59;;;9.89;49.07
55687;BME280;41911;52.362;4.978;2022-11-03T00:16:50;101235.89;;;10.59;48.51
55687;BME280;41911;52.362;4.978;2022-11-03T00:17:21;101235.87;;;9.94;49.06
55687;BME280;41911;52.362;4.978;2022-11-03T00:17:51;101235.87;;;10.13;48.57
55687;BME280;41911;52.362;4.978;2022-11-03T00:18:22;101235.09;;;10.40;48.73
55687;BME280;41911;52.362;4.978;2022-11-03T00:18:54;101230.49;;;9.96;49.32
55687;BME280;41911;52.362;4.978;2022-11-03T00:19:25;101233.25;;;9.63;49.38
55687;BME280;41911;52.362;4.978;2022-11-03T00:19:56;101232.29;;;10.03;49.17
55687;BME280;41911;52.362;4.978;2022-11-03T00:20:27;101230.74;;;10.22;48.95
55687;BME280;41911;52.362;4.978;2022-11-03T00:21:00;101231.61;;;10.35;48.83
55687;BME280;41911;52.362;4.978;2022-11-03T00:21:31;101223.31;;;10.06;48.92
55687;BME280;41911;52.362;4.978;2022-11-03T00:22:02;101230.39;;;10.41;48.80
55687;BME280;41911;52.362;4.978;2022-11-03T00:22:33;101228.90;;;10.49;48.69
55687;BME280;41911;52.362;4.978;2022-11-03T00:23:04;101226.93;;;10.41;48.86
55687;BME280;41911;52.362;4.978;2022-11-03T00:23:37;101228.90;;;10.08;48.84
55687;BME280;41911;52.362;4.978;2022-11-03T00:24:08;101226.43;;;10.58;48.54
55687;BME280;41911;52.362;4.978;2022-11-03T00:24:39;101228.75;;;10.48;48.59
55687;BME280;41911;52.362;4.978;2022-11-03T00:25:10;101225.90;;;10.39;48.80
55687;BME280;41911;52.362;4.978;2022-11-03T00:25:41;101229.08;;;9.97;48.99
55687;BME280;41911;52.362;4.978;2022-11-03T00:26:42;101219.42;;;10.39;48.90
55687;BME280;41911;52.362;4.978;2022-11-03T00:27:13;101221.54;;;10.04;48.85
55687;BME280;41911;52.362;4.978;2022-11-03T00:27:44;101219.59;;;10.59;48.50
55687;BME280;41911;52.362;4.978;2022-11-03T00:28:15;101220.50;;;10.40;48.79
55687;BME280;41911;52.362;4.978;2022-11-03T00:28:47;101214.65;;;10.29;49.02
55687;BME280;41911;52.362;4.978;2022-11-03T00:29:18;101215.73;;;10.18;48.55
55687;BME280;41911;52.362;4.978;2022-11-03T00:29:49;101213.03;;;10.31;48.44
55687;BME280;41911;52.362;4.978;2022-11-03T00:30:20;101210.21;;;10.33;48.87
55687;BME280;41911;52.362;4.978;2022-11-03T00:30:51;101215.84;;;9.71;49.24
55687;BME280;41911;52.362;4.978;2022-11-03T00:31:23;101212.90;;;10.26;48.93
55687;BME280;41911;52.362;4.978;2022-11-03T00:31:54;101219.06;;;10.41;48.60
55687;BME280;41911;52.362;4.978;2022-11-03T00:32:27;101216.75;;;10.12;49.08
55687;BME280;41911;52.362;4.978;2022-11-03T00:32:58;101219.92;;;10.10;49.33
55687;BME280;41911;52.362;4.978;2022-11-03T00:33:30;101222.56;;;10.02;49.35
55687;BME280;41911;52.362;4.978;2022-11-03T00:34:02;101219.01;;;9.99;49.44
55687;BME280;41911;52.362;4.978;2022-11-03T00:34:33;101222.50;;;10.21;49.07
55687;BME280;41911;52.362;4.978;2022-11-03T00:35:05;101224.32;;;10.39;48.74
55687;BME280;41911;52.362;4.978;2022-11-03T00:35:36;101221.88;;;10.27;48.59
55687;BME280;41911;52.362;4.978;2022-11-03T00:36:11;101225.42;;;10.27;48.91
55687;BME280;41911;52.362;4.978;2022-11-03T00:36:43;101222.58;;;10.18;49.17
55687;BME280;41911;52.362;4.978;2022-11-03T00:37:14;101218.71;;;10.25;49.06
55687;BME280;41911;52.362;4.978;2022-11-03T00:37:45;101214.88;;;10.34;48.83
55687;BME280;41911;52.362;4.978;2022-11-03T00:38:16;101213.70;;;9.98;49.06
55687;BME280;41911;52.362;4.978;2022-11-03T00:38:47;101212.87;;;9.95;49.32
55687;BME280;41911;52.362;4.978;2022-11-03T00:39:18;101206.30;;;10.07;49.19
55687;BME280;41911;52.362;4.978;2022-11-03T00:39:49;101206.57;;;10.32;48.70
55687;BME280;41911;52.362;4.978;2022-11-03T00:40:22;101205.38;;;10.34;48.72
55687;BME280;41911;52.362;4.978;2022-11-03T00:40:53;101205.66;;;10.59;48.57
55687;BME280;41911;52.362;4.978;2022-11-03T00:41:26;101208.35;;;10.63;48.43
55687;BME280;41911;52.362;4.978;2022-11-03T00:41:57;101207.86;;;10.38;48.33
55687;BME280;41911;52.362;4.978;2022-11-03T00:42:28;101209.06;;;10.41;48.71
55687;BME280;41911;52.362;4.978;2022-11-03T00:42:59;101210.94;;;10.55;48.46
55687;BME280;41911;52.362;4.978;2022-11-03T00:43:31;101211.47;;;10.52;48.47
55687;BME280;41911;52.362;4.978;2022-11-03T00:44:02;101207.94;;;10.27;48.73
55687;BME280;41911;52.362;4.978;2022-11-03T00:44:33;101206.96;;;10.28;48.83
55687;BME280;41911;52.362;4.978;2022-11-03T00:45:05;101211.06;;;9.96;48.92
55687;BME280;41911;52.362;4.978;2022-11-03T00:45:37;101209.80;;;10.17;48.88
55687;BME280;41911;52.362;4.978;2022-11-03T00:46:08;101201.41;;;10.22;48.78
55687;BME280;41911;52.362;4.978;2022-11-03T00:46:40;101207.81;;;10.38;48.61
55687;BME280;41911;52.362;4.978;2022-11-03T00:47:11;101206.19;;;10.67;48.13
55687;BME280;41911;52.362;4.978;2022-11-03T00:47:41;101205.11;;;10.00;48.62
55687;BME280;41911;52.362;4.978;2022-11-03T00:48:13;101212.46;;;10.37;48.59
55687;BME280;41911;52.362;4.978;2022-11-03T00:48:44;101208.65;;;10.52;48.48
55687;BME280;41911;52.362;4.978;2022-11-03T00:49:15;101208.08;;;10.55;48.36
55687;BME280;41911;52.362;4.978;2022-11-03T00:49:46;101210.31;;;10.44;48.11
55687;BME280;41911;52.362;4.978;2022-11-03T00:50:17;101209.25;;;10.45;48.39
55687;BME280;41911;52.362;4.978;2022-11-03T00:50:48;101213.43;;;10.62;48.29
55687;BME280;41911;52.362;4.978;2022-11-03T00:51:21;101207.52;;;10.45;48.02
55687;BME280;41911;52.362;4.978;2022-11-03T00:51:52;101217.39;;;10.48;48.23
55687;BME280;41911;52.362;4.978;2022-11-03T00:52:23;101212.11;;;10.04;48.77
55687;BME280;41911;52.362;4.978;2022-11-03T00:52:54;101212.43;;;9.62;49.12
55687;BME280;41911;52.362;4.978;2022-11-03T00:53:25;101214.68;;;9.73;49.05
55687;BME280;41911;52.362;4.978;2022-11-03T00:53:57;101210.58;;;10.27;48.74
55687;BME280;41911;52.362;4.978;2022-11-03T00:54:28;101211.92;;;10.37;48.56
55687;BME280;41911;52.362;4.978;2022-11-03T00:55:01;101208.67;;;10.25;48.78
55687;BME280;41911;52.362;4.978;2022-11-03T00:55:32;101209.84;;;10.17;48.87
55687;BME280;41911;52.362;4.978;2022-11-03T00:56:04;101206.99;;;10.26;48.74
55687;BME280;41911;52.362;4.978;2022-11-03T00:56:37;101205.85;;;10.36;48.47
55687;BME280;41911;52.362;4.978;2022-11-03T00:57:09;101208.73;;;9.90;49.16
55687;BME280;41911;52.362;4.978;2022-11-03T00:57:40;101214.03;;;9.66;49.21
55687;BME280;41911;52.362;4.978;2022-11-03T00:58:12;101211.30;;;9.39;49.22
55687;BME280;41911;52.362;4.978;2022-11-03T00:58:44;101208.85;;;9.97;49.12
55687;BME280;41911;52.362;4.978;2022-11-03T00:59:15;101206.68;;;10.31;48.71
55687;BME280;41911;52.362;4.978;2022-11-03T00:59:46;101205.22;;;10.36;48.57
55687;BME280;41911;52.362;4.978;2022-11-03T01:00:17;101207.08;;;10.38;48.53
55687;BME280;41911;52.362;4.978;2022-11-03T01:00:48;101202.89;;;10.40;48.50
55687;BME280;41911;52.362;4.978;2022-11-03T01:01:20;101204.57;;;10.21;48.53
55687;BME280;41911;52.362;4.978;2022-11-03T01:01:52;101203.90;;;10.13;48.68
55687;BME280;41911;52.362;4.978;2022-11-03T01:02:23;101203.54;;;10.29;48.62
55687;BME280;41911;52.362;4.978;2022-11-03T01:02:54;101208.15;;;10.37;48.53
55687;BME280;41911;52.362;4.978;2022-11-03T01:03:25;101205.60;;;10.00;48.92
55687;BME280;41911;52.362;4.978;2022-11-03T01:03:56;101206.92;;;10.01;48.89
55687;BME280;41911;52.362;4.978;2022-11-03T01:04:28;101204.14;;;10.15;48.83
55687;BME280;41911;52.362;4.978;2022-11-03T01:04:59;101202.16;;;10.26;48.54
55687;BME280;41911;52.362;4.978;2022-11-03T01:05:30;101203.11;;;10.17;48.71
55687;BME280;41911;52.362;4.978;2022-11-03T01:06:03;101200.72;;;10.06;48.87
55687;BME280;41911;52.362;4.978;2022-11-03T01:06:40;101201.20;;;10.16;48.79
55687;BME280;41911;52.362;4.978;2022-11-03T01:07:11;101202.92;;;9.91;48.93
55687;BME280;41911;52.362;4.978;2022-11-03T01:07:42;101205.61;;;9.94;49.00
55687;BME280;41911;52.362;4.978;2022-11-03T01:08:13;101207.52;;;9.95;49.09
55687;BME280;41911;52.362;4.978;2022-11-03T01:08:44;101203.56;;;10.14;48.76
55687;BME280;41911;52.362;4.978;2022-11-03T01:09:15;101205.43;;;10.05;48.67
55687;BME280;41911;52.362;4.978;2022-11-03T01:09:46;101205.86;;;10.05;48.68
55687;BME280;41911;52.362;4.978;2022-11-03T01:10:17;101201.18;;;10.37;48.22
55687;BME280;41911;52.362;4.978;2022-11-03T01:10:48;101203.10;;;10.32;48.37
55687;BME280;41911;52.362;4.978;2022-11-03T01:11:21;101206.09;;;10.56;47.89
55687;BME280;41911;52.362;4.978;2022-11-03T01:11:58;101203.91;;;10.30;48.15
55687;BME280;41911;52.362;4.978;2022-11-03T01:12:29;101205.36;;;9.98;48.78
55687;BME280;41911;52.362;4.978;2022-11-03T01:13:00;101202.54;;;9.94;48.85
55687;BME280;41911;52.362;4.978;2022-11-03T01:13:31;101204.99;;;10.12;48.51
55687;BME280;41911;52.362;4.978;2022-11-03T01:14:02;101204.57;;;10.12;48.66
55687;BME280;41911;52.362;4.978;2022-11-03T01:14:35;101205.97;;;9.95;48.80
55687;BME280;41911;52.362;4.978;2022-11-03T01:15:07;101204.16;;;10.08;48.62
55687;BME280;41911;52.362;4.978;2022-11-03T01:15:38;101201.92;;;10.27;48.36
55687;BME280;41911;52.362;4.978;2022-11-03T01:16:09;101202.40;;;10.31;48.31
55687;BME280;41911;52.362;4.978;2022-11-03T01:16:41;101207.27;;;9.99;48.80
55687;BME280;41911;52.362;4.978;2022-11-03T01:17:13;101200.73;;;10.11;48.61
55687;BME280;41911;52.362;4.978;2022-11-03T01:17:44;101197.06;;;10.05;48.74
55687;BME280;41911;52.362;4.978;2022-11-03T01:18:15;101204.05;;;9.67;49.14
55687;BME280;41911;52.362;4.978;2022-11-03T01:18:47;101200.30;;;9.85;48.87
55687;BME280;41911;52.362;4.978;2022-11-03T01:19:18;101199.54;;;9.86;48.92
55687;BME280;41911;52.362;4.978;2022-11-03T01:19:50;101194.34;;;10.04;48.70
55687;BME280;41911;52.362;4.978;2022-11-03T01:20:21;101193.17;;;10.16;48.45
55687;BME280;41911;52.362;4.978;2022-11-03T01:20:54;101188.82;;;10.30;48.23
55687;BME280;41911;52.362;4.978;2022-11-03T01:21:25;101191.09;;;10.57;47.85
55687;BME280;41911;52.362;4.978;2022-11-03T01:21:56;101187.26;;;10.55;47.98
55687;BME280;41911;52.362;4.978;2022-11-03T01:22:27;101189.52;;;10.53;47.99
55687;BME280;41911;52.362;4.978;2022-11-03T01:22:58;101186.94;;;10.68;47.75
55687;BME280;41911;52.362;4.978;2022-11-03T01:23:29;101190.63;;;10.57;48.01
55687;BME280;41911;52.362;4.978;2022-11-03T01:24:00;101189.65;;;9.88;48.32
55687;BME280;41911;52.362;4.978;2022-11-03T01:24:33;101189.37;;;10.48;47.92
55687;BME280;41911;52.362;4.978;2022-11-03T01:25:05;101187.44;;;10.17;48.01
55687;BME280;41911;52.362;4.978;2022-11-03T01:25:36;101190.04;;;10.55;47.86
55687;BME280;41911;52.362;4.978;2022-11-03T01:26:09;101191.17;;;10.49;47.97
55687;BME280;41911;52.362;4.978;2022-11-03T01:26:40;101185.24;;;9.96;48.29
55687;BME280;41911;52.362;4.978;2022-11-03T01:27:13;101189.22;;;10.39;47.97
55687;BME280;41911;52.362;4.978;2022-11-03T01:27:44;101184.78;;;10.55;47.83
55687;BME280;41911;52.362;4.978;2022-11-03T01:28:16;101179.67;;;10.75;47.51
55687;BME280;41911;52.362;4.978;2022-11-03T01:28:47;101184.07;;;10.48;47.50
55687;BME280;41911;52.362;4.978;2022-11-03T01:29:18;101179.53;;;10.87;47.18
55687;BME280;41911;52.362;4.978;2022-11-03T01:29:49;101172.13;;;10.81;47.40
55687;BME280;41911;52.362;4.978;2022-11-03T01:30:20;101175.54;;;10.72;47.59
55687;BME280;41911;52.362;4.978;2022-11-03T01:30:51;101175.43;;;10.41;47.63
55687;BME280;41911;52.362;4.978;2022-11-03T01:31:23;101169.02;;;10.51;47.39
55687;BME280;41911;52.362;4.978;2022-11-03T01:31:54;101169.10;;;10.28;47.75
55687;BME280;41911;52.362;4.978;2022-11-03T01:32:25;101167.49;;;9.91;48.01
55687;BME280;41911;52.362;4.978;2022-11-03T01:32:57;101169.23;;;10.57;47.78
55687;BME280;41911;52.362;4.978;2022-11-03T01:33:28;101166.20;;;10.15;48.38
55687;BME280;41911;52.362;4.978;2022-11-03T01:33:59;101163.96;;;10.12;48.07
55687;BME280;41911;52.362;4.978;2022-11-03T01:34:31;101163.64;;;10.59;47.92
55687;BME280;41911;52.362;4.978;2022-11-03T01:35:03;101163.22;;;10.30;47.97
55687;BME280;41911;52.362;4.978;2022-11-03T01:35:34;101154.29;;;10.42;47.74
55687;BME280;41911;52.362;4.978;2022-11-03T01:36:05;101154.33;;;10.83;47.52
55687;BME280;41911;52.362;4.978;2022-11-03T01:36:36;101153.54;;;10.84;47.45
55687;BME280;41911;52.362;4.978;2022-11-03T01:37:07;101148.02;;;10.26;47.68
55687;BME280;41911;52.362;4.978;2022-11-03T01:37:38;101148.59;;;10.56;47.91
55687;BME280;41911;52.362;4.978;2022-11-03T01:38:09;101151.28;;;9.99;48.38
55687;BME280;41911;52.362;4.978;2022-11-03T01:38:41;101147.91;;;10.42;48.18
55687;BME280;41911;52.362;4.978;2022-11-03T01:39:14;101150.91;;;10.20;48.10
55687;BME280;41911;52.362;4.978;2022-11-03T01:39:46;101152.13;;;10.03;48.40
55687;BME280;41911;52.362;4.978;2022-11-03T01:40:17;101146.29;;;10.48;48.18
55687;BME280;41911;52.362;4.978;2022-11-03T01:40:49;101143.74;;;10.12;48.42
55687;BME280;41911;52.362;4.978;2022-11-03T01:41:21;101143.39;;;9.84;48.64
55687;BME280;41911;52.362;4.978;2022-11-03T01:41:53;101140.83;;;9.67;49.07
55687;BME280;41911;52.362;4.978;2022-11-03T01:42:23;101143.90;;;9.83;49.06
55687;BME280;41911;52.362;4.978;2022-11-03T01:42:54;101138.04;;;10.01;48.77
55687;BME280;41911;52.362;4.978;2022-11-03T01:43:29;101148.26;;;9.93;48.83
55687;BME280;41911;52.362;4.978;2022-11-03T01:44:34;101136.04;;;9.77;49.12
55687;BME280;41911;52.362;4.978;2022-11-03T01:45:08;101134.78;;;9.60;49.49
55687;BME280;41911;52.362;4.978;2022-11-03T01:45:39;101134.21;;;9.82;49.29
55687;BME280;41911;52.362;4.978;2022-11-03T01:46:17;101137.07;;;9.77;49.45
55687;BME280;41911;52.362;4.978;2022-11-03T01:46:54;101132.80;;;10.31;49.07
55687;BME280;41911;52.362;4.978;2022-11-03T01:47:29;101125.04;;;9.66;49.59
55687;BME280;41911;52.362;4.978;2022-11-03T01:48:02;101129.84;;;9.53;49.90
55687;BME280;41911;52.362;4.978;2022-11-03T01:48:34;101133.08;;;9.66;49.65
55687;BME280;41911;52.362;4.978;2022-11-03T01:49:10;101129.92;;;9.69;49.67
55687;BME280;41911;52.362;4.978;2022-11-03T01:49:48;101128.38;;;9.51;49.75
55687;BME280;41911;52.362;4.978;2022-11-03T01:50:20;101132.25;;;9.67;49.66
55687;BME280;41911;52.362;4.978;2022-11-03T01:50:52;101128.64;;;10.03;49.42
55687;BME280;41911;52.362;4.978;2022-11-03T01:51:25;101129.58;;;9.81;49.23
55687;BME280;41911;52.362;4.978;2022-11-03T01:52:02;101123.55;;;9.44;49.88
55687;BME280;41911;52.362;4.978;2022-11-03T01:52:39;101130.19;;;9.72;49.53
55687;BME280;41911;52.362;4.978;2022-11-03T01:53:13;101132.62;;;9.70;49.50
55687;BME280;41911;52.362;4.978;2022-11-03T01:53:47;101126.99;;;10.01;49.97
55687;BME280;41911;52.362;4.978;2022-11-03T01:54:22;101135.25;;;9.46;50.36
55687;BME280;41911;52.362;4.978;2022-11-03T01:55:01;101130.52;;;9.39;50.29
55687;BME280;41911;52.362;4.978;2022-11-03T01:55:37;101131.92;;;9.73;50.52
55687;BME280;41911;52.362;4.978;2022-11-03T01:56:09;101133.04;;;9.41;50.06
55687;BME280;41911;52.362;4.978;2022-11-03T01:56:43;101131.96;;;9.23;50.43
55687;BME280;41911;52.362;4.978;2022-11-03T01:57:18;101131.22;;;10.21;49.96
55687;BME280;41911;52.362;4.978;2022-11-03T01:57:56;101135.58;;;9.66;49.80
55687;BME280;41911;52.362;4.978;2022-11-03T01:58:32;101132.96;;;9.97;49.32
55687;BME280;41911;52.362;4.978;2022-11-03T01:59:04;101133.48;;;9.45;50.10
55687;BME280;41911;52.362;4.978;2022-11-03T01:59:35;101132.14;;;9.82;49.54
55687;BME280;41911;52.362;4.978;2022-11-03T02:00:08;101130.56;;;9.49;49.91
55687;BME280;41911;52.362;4.978;2022-11-03T02:00:40;101126.54;;;9.50;50.05
55687;BME280;41911;52.362;4.978;2022-11-03T02:01:12;101127.81;;;9.80;50.10
55687;BME280;41911;52.362;4.978;2022-11-03T02:01:44;101128.70;;;9.42;49.99
55687;BME280;41911;52.362;4.978;2022-11-03T02:02:16;101124.43;;;9.78;49.51
55687;BME280;41911;52.362;4.978;2022-11-03T02:02:47;101124.37;;;9.62;49.68
55687;BME280;41911;52.362;4.978;2022-11-03T02:03:20;101124.92;;;9.45;50.03
55687;BME280;41911;52.362;4.978;2022-11-03T02:03:55;101128.00;;;9.70;49.61
55687;BME280;41911;52.362;4.978;2022-11-03T02:04:32;101129.20;;;9.73;49.69
55687;BME280;41911;52.362;4.978;2022-11-03T02:05:06;101126.28;;;9.35;50.13
55687;BME280;41911;52.362;4.978;2022-11-03T02:05:39;101123.07;;;9.67;50.14
55687;BME280;41911;52.362;4.978;2022-11-03T02:06:13;101124.96;;;9.53;49.86
55687;BME280;41911;52.362;4.978;2022-11-03T02:06:45;101128.38;;;9.50;50.48
55687;BME280;41911;52.362;4.978;2022-11-03T02:07:25;101121.24;;;9.51;49.99
55687;BME280;41911;52.362;4.978;2022-11-03T02:08:04;101118.33;;;9.47;49.96
55687;BME280;41911;52.362;4.978;2022-11-03T02:08:42;101126.55;;;9.44;50.06
55687;BME280;41911;52.362;4.978;2022-11-03T02:09:16;101121.32;;;9.98;49.76
55687;BME280;41911;52.362;4.978;2022-11-03T02:09:47;101122.16;;;10.68;49.34
55687;BME280;41911;52.362;4.978;2022-11-03T02:10:19;101123.82;;;10.10;49.18
55687;BME280;41911;52.362;4.978;2022-11-03T02:10:50;101118.47;;;9.94;49.09
55687;BME280;41911;52.362;4.978;2022-11-03T02:11:22;101117.57;;;9.72;49.64
55687;BME280;41911;52.362;4.978;2022-11-03T02:11:52;101121.76;;;9.83;49.42
55687;BME280;41911;52.362;4.978;2022-11-03T02:12:23;101115.83;;;9.58;49.87
55687;BME280;41911;52.362;4.978;2022-11-03T02:12:56;101116.40;;;9.89;49.55
55687;BME280;41911;52.362;4.978;2022-11-03T02:13:27;101113.39;;;10.24;49.12
55687;BME280;41911;52.362;4.978;2022-11-03T02:13:58;101116.54;;;10.16;49.22
55687;BME280;41911;52.362;4.978;2022-11-03T02:14:29;101117.46;;;9.98;49.52
55687;BME280;41911;52.362;4.978;2022-11-03T02:15:03;101117.52;;;9.77;49.43
55687;BME280;41911;52.362;4.978;2022-11-03T02:15:38;101118.42;;;10.03;49.35
55687;BME280;41911;52.362;4.978;2022-11-03T02:16:09;101113.94;;;10.29;48.95
55687;BME280;41911;52.362;4.978;2022-11-03T02:16:43;101115.53;;;10.08;49.23
55687;BME280;41911;52.362;4.978;2022-11-03T02:17:16;101118.40;;;10.10;49.42
55687;BME280;41911;52.362;4.978;2022-11-03T02:17:50;101117.63;;;10.21;49.18
55687;BME280;41911;52.362;4.978;2022-11-03T02:18:24;101115.60;;;10.05;49.43
55687;BME280;41911;52.362;4.978;2022-11-03T02:18:59;101118.50;;;10.14;49.37
55687;BME280;41911;52.362;4.978;2022-11-03T02:19:33;101113.32;;;10.07;49.52
55687;BME280;41911;52.362;4.978;2022-11-03T02:20:09;101113.61;;;9.82;49.94
55687;BME280;41911;52.362;4.978;2022-11-03T02:20:41;101113.63;;;10.09;49.51
55687;BME280;41911;52.362;4.978;2022-11-03T02:21:23;101113.49;;;9.96;49.70
55687;BME280;41911;52.362;4.978;2022-11-03T02:22:02;101107.88;;;9.43;50.55
55687;BME280;41911;52.362;4.978;2022-11-03T02:22:54;101106.52;;;9.44;50.68
55687;BME280;41911;52.362;4.978;2022-11-03T02:23:33;101112.82;;;9.75;50.04
55687;BME280;41911;52.362;4.978;2022-11-03T02:24:14;101113.64;;;9.77;50.03
55687;BME280;41911;52.362;4.978;2022-11-03T02:24:51;101116.67;;;10.14;49.56
55687;BME280;41911;52.362;4.978;2022-11-03T02:25:41;101109.25;;;10.27;49.32
55687;BME280;41911;52.362;4.978;2022-11-03T02:26:14;101109.63;;;10.43;49.03
55687;BME280;41911;52.362;4.978;2022-11-03T02:26:47;101109.18;;;10.25;49.15
55687;BME280;41911;52.362;4.978;2022-11-03T02:27:20;101111.39;;;10.12;49.49
55687;BME280;41911;52.362;4.978;2022-11-03T02:27:51;101106.49;;;10.40;49.07
55687;BME280;41911;52.362;4.978;2022-11-03T02:28:24;101108.69;;;10.58;49.00
55687;BME280;41911;52.362;4.978;2022-11-03T02:28:56;101109.44;;;10.67;48.71
55687;BME280;41911;52.362;4.978;2022-11-03T02:29:27;101105.88;;;10.52;48.89
55687;BME280;41911;52.362;4.978;2022-11-03T02:29:58;101102.58;;;10.22;49.07
55687;BME280;41911;52.362;4.978;2022-11-03T02:30:34;101100.21;;;10.49;49.01
55687;BME280;41911;52.362;4.978;2022-11-03T02:31:14;101102.60;;;10.25;49.31
55687;BME280;41911;52.362;4.978;2022-11-03T02:31:52;101099.42;;;9.86;49.54
55687;BME280;41911;52.362;4.978;2022-11-03T02:32:32;101102.66;;;10.35;49.23
55687;BME280;41911;52.362;4.978;2022-11-03T02:33:20;101096.35;;;10.53;49.13
55687;BME280;41911;52.362;4.978;2022-11-03T02:33:57;101094.83;;;10.24;49.49
55687;BME280;41911;52.362;4.978;2022-11-03T02:34:36;101091.24;;;10.10;49.32
55687;BME280;41911;52.362;4.978;2022-11-03T02:35:14;101093.87;;;10.19;49.46
55687;BME280;41911;52.362;4.978;2022-11-03T02:48:31;101057.29;;;10.79;47.48
55687;BME280;41911;52.362;4.978;2022-11-03T02:49:02;101052.96;;;10.88;47.71
55687;BME280;41911;52.362;4.978;2022-11-03T02:49:38;101049.01;;;10.77;47.87
55687;BME280;41911;52.362;4.978;2022-11-03T02:50:09;101048.63;;;10.88;47.78
55687;BME280;41911;52.362;4.978;2022-11-03T02:50:40;101049.73;;;10.44;47.92
55687;BME280;41911;52.362;4.978;2022-11-03T02:51:11;101050.44;;;10.51;47.86
55687;BME280;41911;52.362;4.978;2022-11-03T02:51:42;101049.71;;;10.74;47.98
55687;BME280;41911;52.362;4.978;2022-11-03T02:52:33;101048.34;;;10.89;47.83
55687;BME280;41911;52.362;4.978;2022-11-03T02:53:05;101046.94;;;10.72;47.78
55687;BME280;41911;52.362;4.978;2022-11-03T02:53:39;101049.04;;;10.63;47.89
55687;BME280;41911;52.362;4.978;2022-11-03T02:54:17;101045.86;;;10.47;47.72
55687;BME280;41911;52.362;4.978;2022-11-03T02:54:51;101046.81;;;10.21;48.34
55687;BME280;41911;52.362;4.978;2022-11-03T02:55:31;101045.97;;;10.29;48.71
55687;BME280;41911;52.362;4.978;2022-11-03T02:56:06;101043.51;;;10.79;48.46
55687;BME280;41911;52.362;4.978;2022-11-03T02:56:48;101041.82;;;10.85;48.37
55687;BME280;41911;52.362;4.978;2022-11-03T02:57:22;101044.50;;;10.74;47.84
55687;BME280;41911;52.362;4.978;2022-11-03T02:57:59;101047.33;;;10.54;47.79
55687;BME280;41911;52.362;4.978;2022-11-03T02:58:39;101046.48;;;10.77;47.95
55687;BME280;41911;52.362;4.978;2022-11-03T02:59:13;101044.77;;;10.60;48.13
55687;BME280;41911;52.362;4.978;2022-11-03T02:59:52;101042.44;;;10.76;47.93
55687;BME280;41911;52.362;4.978;2022-11-03T03:00:27;101038.54;;;10.85;47.75
55687;BME280;41911;52.362;4.978;2022-11-03T03:01:03;101039.21;;;10.81;47.84
55687;BME280;41911;52.362;4.978;2022-11-03T03:01:41;101039.69;;;10.82;47.48
55687;BME280;41911;52.362;4.978;2022-11-03T03:02:21;101033.50;;;11.22;47.71
55687;BME280;41911;52.362;4.978;2022-11-03T03:02:58;101032.60;;;10.98;47.53
55687;BME280;41911;52.362;4.978;2022-11-03T03:03:37;101028.80;;;10.58;47.83
55687;BME280;41911;52.362;4.978;2022-11-03T03:04:10;101029.16;;;10.26;48.25
55687;BME280;41911;52.362;4.978;2022-11-03T03:04:45;101029.76;;;10.65;48.20
55687;BME280;41911;52.362;4.978;2022-11-03T03:05:23;101028.18;;;10.55;47.93
55687;BME280;41911;52.362;4.978;2022-11-03T03:05:59;101029.62;;;10.97;47.87
55687;BME280;41911;52.362;4.978;2022-11-03T03:06:35;101029.08;;;10.56;47.90
55687;BME280;41911;52.362;4.978;2022-11-03T03:07:11;101027.09;;;11.47;47.29
55687;BME280;41911;52.362;4.978;2022-11-03T03:07:48;101029.35;;;11.05;47.09
55687;BME280;41911;52.362;4.978;2022-11-03T03:08:22;101027.36;;;10.82;47.46